Flugplatz Lachen-Speyerdorf

Für EDRL sind keine METAR/TAF Berichte vorhanden.
Es werden die Flugwettermeldungen vom Flugplatz Mannheim-City in 26 km Entfernung angezeigt.

Bericht für EDFM

vom 08.03. um 18:50 UTC

Wind 5 kt aus 20°

Sichtweite 10 km oder mehr

gute Sicht, keine Wolken < 5000 ft, keine CB, keine Wettererscheinungen (CAVOK)

Temperatur 6.0°C

Taupunkt -2.0°C

Luftfeuchtigkeit 56%

Luftdruck 1021 hPa

EDFM 081850Z 02005KT CAVOK 06/M02 Q1021

Prognose für EDFM

vom 08.03. um 17:00 UTC

Zwischen 18:00 UTC und 21:00 UTC

Wind 4 kt aus 20°

Sichtweite 10 km oder mehr

aufgelockert bewölkt in 4500 ft

TAF EDFM 081700Z 0818/0821 02004KT 9999 SCT045
Impressum